sensor_id;sensor_type;location;lat;lon;timestamp;P1;durP1;ratioP1;P2;durP2;ratioP2
41677;SDS011;27364;49.026;8.712;2023-04-03T00:01:25;4.78;;;2.08;;
41677;SDS011;27364;49.026;8.712;2023-04-03T00:03:51;4.25;;;2.25;;
41677;SDS011;27364;49.026;8.712;2023-04-03T00:06:16;2.97;;;1.80;;
41677;SDS011;27364;49.026;8.712;2023-04-03T00:08:42;4.57;;;2.10;;
41677;SDS011;27364;49.026;8.712;2023-04-03T00:11:09;3.70;;;2.00;;
41677;SDS011;27364;49.026;8.712;2023-04-03T00:13:35;3.58;;;1.90;;
41677;SDS011;27364;49.026;8.712;2023-04-03T00:16:01;4.07;;;2.10;;
41677;SDS011;27364;49.026;8.712;2023-04-03T00:18:28;3.08;;;1.90;;
41677;SDS011;27364;49.026;8.712;2023-04-03T00:20:55;4.55;;;2.28;;
41677;SDS011;27364;49.026;8.712;2023-04-03T00:23:21;4.68;;;2.03;;
41677;SDS011;27364;49.026;8.712;2023-04-03T00:25:48;4.13;;;2.00;;
41677;SDS011;27364;49.026;8.712;2023-04-03T00:28:14;5.28;;;2.08;;
41677;SDS011;27364;49.026;8.712;2023-04-03T00:30:40;4.53;;;2.40;;
41677;SDS011;27364;49.026;8.712;2023-04-03T00:33:06;4.10;;;2.30;;
41677;SDS011;27364;49.026;8.712;2023-04-03T00:35:33;4.97;;;2.20;;
41677;SDS011;27364;49.026;8.712;2023-04-03T00:37:59;5.95;;;2.30;;
41677;SDS011;27364;49.026;8.712;2023-04-03T00:40:26;3.47;;;2.00;;
41677;SDS011;27364;49.026;8.712;2023-04-03T00:42:57;3.88;;;2.10;;
41677;SDS011;27364;49.026;8.712;2023-04-03T00:45:25;3.58;;;2.00;;
41677;SDS011;27364;49.026;8.712;2023-04-03T00:48:02;4.30;;;2.10;;
41677;SDS011;27364;49.026;8.712;2023-04-03T00:50:31;2.92;;;1.80;;
41677;SDS011;27364;49.026;8.712;2023-04-03T00:52:59;3.92;;;2.30;;
41677;SDS011;27364;49.026;8.712;2023-04-03T00:55:25;5.93;;;2.22;;
41677;SDS011;27364;49.026;8.712;2023-04-03T00:57:52;3.67;;;2.35;;
41677;SDS011;27364;49.026;8.712;2023-04-03T01:00:19;3.80;;;1.90;;
41677;SDS011;27364;49.026;8.712;2023-04-03T01:02:47;3.65;;;2.10;;
41677;SDS011;27364;49.026;8.712;2023-04-03T01:05:12;3.67;;;1.90;;
41677;SDS011;27364;49.026;8.712;2023-04-03T01:07:40;4.15;;;2.00;;
41677;SDS011;27364;49.026;8.712;2023-04-03T01:10:07;2.58;;;1.70;;
41677;SDS011;27364;49.026;8.712;2023-04-03T01:12:39;2.75;;;1.60;;
41677;SDS011;27364;49.026;8.712;2023-04-03T01:15:07;4.88;;;2.10;;
41677;SDS011;27364;49.026;8.712;2023-04-03T01:17:41;4.10;;;2.05;;
41677;SDS011;27364;49.026;8.712;2023-04-03T01:22:59;4.40;;;2.08;;
41677;SDS011;27364;49.026;8.712;2023-04-03T01:25:37;3.65;;;1.85;;
41677;SDS011;27364;49.026;8.712;2023-04-03T01:28:06;4.35;;;1.80;;
41677;SDS011;27364;49.026;8.712;2023-04-03T01:30:34;5.38;;;2.13;;
41677;SDS011;27364;49.026;8.712;2023-04-03T01:33:06;5.82;;;2.13;;
41677;SDS011;27364;49.026;8.712;2023-04-03T01:35:31;5.32;;;2.00;;
41677;SDS011;27364;49.026;8.712;2023-04-03T01:37:57;4.57;;;2.33;;
41677;SDS011;27364;49.026;8.712;2023-04-03T01:40:22;4.53;;;2.22;;
41677;SDS011;27364;49.026;8.712;2023-04-03T01:42:48;3.15;;;1.90;;
41677;SDS011;27364;49.026;8.712;2023-04-03T01:45:13;4.47;;;1.92;;
41677;SDS011;27364;49.026;8.712;2023-04-03T01:47:39;4.53;;;2.20;;
41677;SDS011;27364;49.026;8.712;2023-04-03T01:50:05;3.25;;;1.80;;
41677;SDS011;27364;49.026;8.712;2023-04-03T01:52:31;4.30;;;2.22;;
41677;SDS011;27364;49.026;8.712;2023-04-03T01:54:56;3.05;;;1.75;;
41677;SDS011;27364;49.026;8.712;2023-04-03T01:57:22;3.47;;;2.20;;
41677;SDS011;27364;49.026;8.712;2023-04-03T01:59:47;4.57;;;2.00;;
41677;SDS011;27364;49.026;8.712;2023-04-03T02:02:13;3.42;;;2.05;;
41677;SDS011;27364;49.026;8.712;2023-04-03T02:04:39;3.45;;;2.35;;
41677;SDS011;27364;49.026;8.712;2023-04-03T02:07:05;5.05;;;1.98;;
41677;SDS011;27364;49.026;8.712;2023-04-03T02:09:31;3.70;;;2.00;;
41677;SDS011;27364;49.026;8.712;2023-04-03T02:11:56;3.47;;;1.90;;
41677;SDS011;27364;49.026;8.712;2023-04-03T02:14:22;3.65;;;1.85;;
41677;SDS011;27364;49.026;8.712;2023-04-03T02:16:48;3.75;;;2.05;;
41677;SDS011;27364;49.026;8.712;2023-04-03T02:19:14;3.20;;;2.20;;
41677;SDS011;27364;49.026;8.712;2023-04-03T02:21:40;3.92;;;2.13;;
41677;SDS011;27364;49.026;8.712;2023-04-03T02:24:05;4.25;;;2.10;;
41677;SDS011;27364;49.026;8.712;2023-04-03T02:26:31;4.88;;;2.00;;
41677;SDS011;27364;49.026;8.712;2023-04-03T02:28:57;3.63;;;1.90;;
41677;SDS011;27364;49.026;8.712;2023-04-03T02:31:22;3.83;;;1.98;;
41677;SDS011;27364;49.026;8.712;2023-04-03T02:33:48;4.05;;;2.10;;
41677;SDS011;27364;49.026;8.712;2023-04-03T02:36:15;4.05;;;2.03;;
41677;SDS011;27364;49.026;8.712;2023-04-03T02:38:41;3.78;;;2.00;;
41677;SDS011;27364;49.026;8.712;2023-04-03T02:41:09;3.40;;;1.90;;
41677;SDS011;27364;49.026;8.712;2023-04-03T02:43:36;4.10;;;2.30;;
41677;SDS011;27364;49.026;8.712;2023-04-03T02:46:02;4.93;;;2.00;;
41677;SDS011;27364;49.026;8.712;2023-04-03T02:48:27;3.65;;;2.05;;
41677;SDS011;27364;49.026;8.712;2023-04-03T02:50:53;5.63;;;2.00;;
41677;SDS011;27364;49.026;8.712;2023-04-03T02:53:18;3.67;;;2.13;;
41677;SDS011;27364;49.026;8.712;2023-04-03T02:55:44;3.85;;;1.95;;
41677;SDS011;27364;49.026;8.712;2023-04-03T02:58:10;4.97;;;2.17;;
41677;SDS011;27364;49.026;8.712;2023-04-03T03:00:36;3.08;;;1.90;;
41677;SDS011;27364;49.026;8.712;2023-04-03T03:03:03;4.28;;;1.92;;
41677;SDS011;27364;49.026;8.712;2023-04-03T03:05:29;4.30;;;2.15;;
41677;SDS011;27364;49.026;8.712;2023-04-03T03:07:55;2.83;;;1.70;;
41677;SDS011;27364;49.026;8.712;2023-04-03T03:10:20;4.18;;;1.77;;
41677;SDS011;27364;49.026;8.712;2023-04-03T03:12:46;4.35;;;2.35;;
41677;SDS011;27364;49.026;8.712;2023-04-03T03:15:12;4.88;;;2.20;;
41677;SDS011;27364;49.026;8.712;2023-04-03T03:17:38;4.45;;;2.40;;
41677;SDS011;27364;49.026;8.712;2023-04-03T03:20:04;4.20;;;2.10;;
41677;SDS011;27364;49.026;8.712;2023-04-03T03:22:30;4.35;;;2.20;;
41677;SDS011;27364;49.026;8.712;2023-04-03T03:24:57;3.15;;;2.00;;
41677;SDS011;27364;49.026;8.712;2023-04-03T03:27:23;6.45;;;2.38;;
41677;SDS011;27364;49.026;8.712;2023-04-03T03:29:49;3.97;;;1.95;;
41677;SDS011;27364;49.026;8.712;2023-04-03T03:32:15;4.07;;;2.15;;
41677;SDS011;27364;49.026;8.712;2023-04-03T03:34:40;3.80;;;2.17;;
41677;SDS011;27364;49.026;8.712;2023-04-03T03:37:06;4.22;;;1.95;;
41677;SDS011;27364;49.026;8.712;2023-04-03T03:39:31;4.28;;;2.00;;
41677;SDS011;27364;49.026;8.712;2023-04-03T03:41:57;4.38;;;2.10;;
41677;SDS011;27364;49.026;8.712;2023-04-03T03:44:23;3.33;;;1.90;;
41677;SDS011;27364;49.026;8.712;2023-04-03T03:46:48;4.13;;;2.13;;
41677;SDS011;27364;49.026;8.712;2023-04-03T03:49:14;5.45;;;2.28;;
41677;SDS011;27364;49.026;8.712;2023-04-03T03:51:39;5.75;;;2.40;;
41677;SDS011;27364;49.026;8.712;2023-04-03T03:54:05;4.15;;;2.40;;
41677;SDS011;27364;49.026;8.712;2023-04-03T03:56:31;4.05;;;2.10;;
41677;SDS011;27364;49.026;8.712;2023-04-03T03:58:57;4.95;;;2.10;;
41677;SDS011;27364;49.026;8.712;2023-04-03T04:01:23;3.92;;;2.25;;
41677;SDS011;27364;49.026;8.712;2023-04-03T04:03:48;3.83;;;2.15;;
41677;SDS011;27364;49.026;8.712;2023-04-03T04:06:14;5.57;;;2.38;;
41677;SDS011;27364;49.026;8.712;2023-04-03T04:08:40;3.85;;;2.08;;
41677;SDS011;27364;49.026;8.712;2023-04-03T04:11:06;4.15;;;2.22;;
41677;SDS011;27364;49.026;8.712;2023-04-03T04:13:32;4.30;;;2.40;;
41677;SDS011;27364;49.026;8.712;2023-04-03T04:15:57;4.97;;;2.65;;
41677;SDS011;27364;49.026;8.712;2023-04-03T04:18:23;4.40;;;2.53;;
41677;SDS011;27364;49.026;8.712;2023-04-03T04:20:49;4.53;;;2.67;;
41677;SDS011;27364;49.026;8.712;2023-04-03T04:23:15;4.53;;;2.40;;
41677;SDS011;27364;49.026;8.712;2023-04-03T04:25:43;4.28;;;2.60;;
41677;SDS011;27364;49.026;8.712;2023-04-03T04:28:10;4.10;;;2.40;;
41677;SDS011;27364;49.026;8.712;2023-04-03T04:30:35;4.22;;;2.22;;
41677;SDS011;27364;49.026;8.712;2023-04-03T04:33:01;4.60;;;2.40;;
41677;SDS011;27364;49.026;8.712;2023-04-03T04:35:27;4.93;;;2.10;;
41677;SDS011;27364;49.026;8.712;2023-04-03T04:37:52;4.72;;;2.33;;
41677;SDS011;27364;49.026;8.712;2023-04-03T04:40:18;3.72;;;2.17;;
41677;SDS011;27364;49.026;8.712;2023-04-03T04:42:43;3.40;;;2.00;;
41677;SDS011;27364;49.026;8.712;2023-04-03T04:45:09;4.30;;;2.40;;
41677;SDS011;27364;49.026;8.712;2023-04-03T04:47:35;4.82;;;2.38;;
41677;SDS011;27364;49.026;8.712;2023-04-03T04:50:00;5.45;;;2.38;;
41677;SDS011;27364;49.026;8.712;2023-04-03T04:52:26;4.93;;;2.28;;
41677;SDS011;27364;49.026;8.712;2023-04-03T04:54:51;4.85;;;2.53;;
41677;SDS011;27364;49.026;8.712;2023-04-03T04:57:17;3.30;;;2.20;;
41677;SDS011;27364;49.026;8.712;2023-04-03T04:59:43;4.28;;;2.03;;
41677;SDS011;27364;49.026;8.712;2023-04-03T05:02:08;4.20;;;2.20;;
41677;SDS011;27364;49.026;8.712;2023-04-03T05:04:34;5.28;;;2.03;;
41677;SDS011;27364;49.026;8.712;2023-04-03T05:07:00;7.18;;;2.30;;
41677;SDS011;27364;49.026;8.712;2023-04-03T05:09:25;6.63;;;2.53;;
41677;SDS011;27364;49.026;8.712;2023-04-03T05:11:51;5.25;;;2.45;;
41677;SDS011;27364;49.026;8.712;2023-04-03T05:14:17;4.50;;;2.38;;
41677;SDS011;27364;49.026;8.712;2023-04-03T05:16:42;4.38;;;2.35;;
41677;SDS011;27364;49.026;8.712;2023-04-03T05:19:08;4.30;;;2.10;;
41677;SDS011;27364;49.026;8.712;2023-04-03T05:21:33;3.45;;;2.17;;
41677;SDS011;27364;49.026;8.712;2023-04-03T05:23:59;4.93;;;2.40;;
41677;SDS011;27364;49.026;8.712;2023-04-03T05:28:56;4.65;;;2.33;;
41677;SDS011;27364;49.026;8.712;2023-04-03T05:31:22;3.80;;;2.55;;
41677;SDS011;27364;49.026;8.712;2023-04-03T05:33:47;4.20;;;2.25;;
41677;SDS011;27364;49.026;8.712;2023-04-03T05:36:13;4.03;;;2.30;;
41677;SDS011;27364;49.026;8.712;2023-04-03T05:38:38;5.97;;;2.13;;
41677;SDS011;27364;49.026;8.712;2023-04-03T05:41:04;7.07;;;2.53;;
41677;SDS011;27364;49.026;8.712;2023-04-03T05:43:30;4.65;;;2.50;;
41677;SDS011;27364;49.026;8.712;2023-04-03T05:45:56;5.68;;;2.15;;
41677;SDS011;27364;49.026;8.712;2023-04-03T05:48:21;5.40;;;2.40;;
41677;SDS011;27364;49.026;8.712;2023-04-03T05:50:47;4.65;;;2.47;;
41677;SDS011;27364;49.026;8.712;2023-04-03T05:53:15;3.80;;;2.22;;
41677;SDS011;27364;49.026;8.712;2023-04-03T05:55:45;4.65;;;2.45;;
41677;SDS011;27364;49.026;8.712;2023-04-03T05:58:11;5.05;;;2.53;;
41677;SDS011;27364;49.026;8.712;2023-04-03T06:00:37;4.25;;;2.40;;
41677;SDS011;27364;49.026;8.712;2023-04-03T06:03:03;3.70;;;2.60;;
41677;SDS011;27364;49.026;8.712;2023-04-03T06:05:29;5.72;;;2.40;;
41677;SDS011;27364;49.026;8.712;2023-04-03T06:07:55;5.72;;;2.50;;
41677;SDS011;27364;49.026;8.712;2023-04-03T06:10:21;5.55;;;2.70;;
41677;SDS011;27364;49.026;8.712;2023-04-03T06:12:47;4.30;;;2.20;;
41677;SDS011;27364;49.026;8.712;2023-04-03T06:15:13;5.18;;;2.30;;
41677;SDS011;27364;49.026;8.712;2023-04-03T06:17:39;4.72;;;2.28;;
41677;SDS011;27364;49.026;8.712;2023-04-03T06:20:05;5.30;;;2.60;;
41677;SDS011;27364;49.026;8.712;2023-04-03T06:22:31;4.20;;;2.38;;
41677;SDS011;27364;49.026;8.712;2023-04-03T06:24:57;6.25;;;2.50;;
41677;SDS011;27364;49.026;8.712;2023-04-03T06:27:22;4.63;;;2.53;;
41677;SDS011;27364;49.026;8.712;2023-04-03T06:29:48;4.68;;;2.50;;
41677;SDS011;27364;49.026;8.712;2023-04-03T06:32:14;4.72;;;2.55;;
41677;SDS011;27364;49.026;8.712;2023-04-03T06:34:40;6.28;;;2.53;;
41677;SDS011;27364;49.026;8.712;2023-04-03T06:37:06;4.60;;;2.45;;
41677;SDS011;27364;49.026;8.712;2023-04-03T06:39:35;5.03;;;2.63;;
41677;SDS011;27364;49.026;8.712;2023-04-03T06:42:01;4.90;;;3.00;;
41677;SDS011;27364;49.026;8.712;2023-04-03T06:44:27;5.47;;;2.40;;
41677;SDS011;27364;49.026;8.712;2023-04-03T06:46:52;5.13;;;3.00;;
41677;SDS011;27364;49.026;8.712;2023-04-03T06:49:19;4.53;;;2.45;;
41677;SDS011;27364;49.026;8.712;2023-04-03T06:51:44;5.85;;;2.88;;
41677;SDS011;27364;49.026;8.712;2023-04-03T06:54:10;5.88;;;3.00;;
41677;SDS011;27364;49.026;8.712;2023-04-03T06:56:35;5.70;;;2.60;;
41677;SDS011;27364;49.026;8.712;2023-04-03T06:59:01;8.27;;;2.88;;
41677;SDS011;27364;49.026;8.712;2023-04-03T07:01:28;6.10;;;3.10;;
41677;SDS011;27364;49.026;8.712;2023-04-03T07:03:55;6.82;;;3.40;;
41677;SDS011;27364;49.026;8.712;2023-04-03T07:06:21;7.30;;;3.22;;
41677;SDS011;27364;49.026;8.712;2023-04-03T07:08:47;4.43;;;2.85;;
41677;SDS011;27364;49.026;8.712;2023-04-03T07:11:16;4.82;;;3.03;;
41677;SDS011;27364;49.026;8.712;2023-04-03T07:13:41;4.50;;;3.10;;
41677;SDS011;27364;49.026;8.712;2023-04-03T07:16:07;5.85;;;3.20;;
41677;SDS011;27364;49.026;8.712;2023-04-03T07:18:33;5.55;;;3.35;;
41677;SDS011;27364;49.026;8.712;2023-04-03T07:20:59;4.95;;;2.75;;
41677;SDS011;27364;49.026;8.712;2023-04-03T07:23:25;6.25;;;2.78;;
41677;SDS011;27364;49.026;8.712;2023-04-03T07:25:51;5.97;;;2.90;;
41677;SDS011;27364;49.026;8.712;2023-04-03T07:28:18;5.93;;;3.13;;
41677;SDS011;27364;49.026;8.712;2023-04-03T07:30:48;7.00;;;3.63;;
41677;SDS011;27364;49.026;8.712;2023-04-03T07:33:16;5.13;;;3.05;;
41677;SDS011;27364;49.026;8.712;2023-04-03T07:35:42;7.85;;;3.33;;
41677;SDS011;27364;49.026;8.712;2023-04-03T07:38:09;5.57;;;3.00;;
41677;SDS011;27364;49.026;8.712;2023-04-03T07:40:35;10.60;;;3.00;;
41677;SDS011;27364;49.026;8.712;2023-04-03T07:43:01;6.93;;;3.20;;
41677;SDS011;27364;49.026;8.712;2023-04-03T07:45:27;5.80;;;3.13;;
41677;SDS011;27364;49.026;8.712;2023-04-03T07:47:53;5.45;;;2.78;;
41677;SDS011;27364;49.026;8.712;2023-04-03T07:50:19;6.50;;;3.22;;
41677;SDS011;27364;49.026;8.712;2023-04-03T07:52:44;5.95;;;2.85;;
41677;SDS011;27364;49.026;8.712;2023-04-03T07:55:11;8.30;;;3.47;;
41677;SDS011;27364;49.026;8.712;2023-04-03T07:57:36;6.63;;;2.95;;
41677;SDS011;27364;49.026;8.712;2023-04-03T08:00:03;5.00;;;2.80;;
41677;SDS011;27364;49.026;8.712;2023-04-03T08:02:29;6.55;;;3.42;;
41677;SDS011;27364;49.026;8.712;2023-04-03T08:04:56;6.40;;;3.03;;
41677;SDS011;27364;49.026;8.712;2023-04-03T08:07:22;5.43;;;2.95;;
41677;SDS011;27364;49.026;8.712;2023-04-03T08:09:48;7.60;;;3.13;;
41677;SDS011;27364;49.026;8.712;2023-04-03T08:12:14;5.43;;;2.92;;
41677;SDS011;27364;49.026;8.712;2023-04-03T08:14:40;7.13;;;2.80;;
41677;SDS011;27364;49.026;8.712;2023-04-03T08:17:05;5.25;;;2.60;;
41677;SDS011;27364;49.026;8.712;2023-04-03T08:19:34;4.68;;;2.60;;
41677;SDS011;27364;49.026;8.712;2023-04-03T08:22:00;5.25;;;3.10;;
41677;SDS011;27364;49.026;8.712;2023-04-03T08:24:27;5.50;;;3.05;;
41677;SDS011;27364;49.026;8.712;2023-04-03T08:26:53;6.32;;;3.03;;
41677;SDS011;27364;49.026;8.712;2023-04-03T08:29:20;5.68;;;2.75;;
41677;SDS011;27364;49.026;8.712;2023-04-03T08:31:46;5.07;;;2.90;;
41677;SDS011;27364;49.026;8.712;2023-04-03T08:34:12;5.45;;;2.95;;
41677;SDS011;27364;49.026;8.712;2023-04-03T08:36:39;6.80;;;3.38;;
41677;SDS011;27364;49.026;8.712;2023-04-03T08:39:05;4.93;;;3.10;;
41677;SDS011;27364;49.026;8.712;2023-04-03T08:41:35;6.82;;;2.80;;
41677;SDS011;27364;49.026;8.712;2023-04-03T08:49:26;7.72;;;2.90;;
41677;SDS011;27364;49.026;8.712;2023-04-03T08:51:53;8.35;;;2.88;;
41677;SDS011;27364;49.026;8.712;2023-04-03T08:54:23;6.68;;;2.85;;
41677;SDS011;27364;49.026;8.712;2023-04-03T08:56:58;6.28;;;2.40;;
41677;SDS011;27364;49.026;8.712;2023-04-03T08:59:32;7.47;;;2.70;;
41677;SDS011;27364;49.026;8.712;2023-04-03T09:02:02;6.65;;;2.75;;
41677;SDS011;27364;49.026;8.712;2023-04-03T09:04:38;7.05;;;2.60;;
41677;SDS011;27364;49.026;8.712;2023-04-03T09:07:06;4.28;;;2.42;;
41677;SDS011;27364;49.026;8.712;2023-04-03T09:09:39;6.68;;;2.80;;
41677;SDS011;27364;49.026;8.712;2023-04-03T09:12:25;6.40;;;2.60;;
41677;SDS011;27364;49.026;8.712;2023-04-03T09:20:13;7.07;;;2.50;;
41677;SDS011;27364;49.026;8.712;2023-04-03T09:22:44;3.90;;;2.30;;
41677;SDS011;27364;49.026;8.712;2023-04-03T09:25:15;4.05;;;2.40;;
41677;SDS011;27364;49.026;8.712;2023-04-03T09:27:48;6.57;;;2.30;;
41677;SDS011;27364;49.026;8.712;2023-04-03T09:30:15;5.30;;;2.42;;
41677;SDS011;27364;49.026;8.712;2023-04-03T09:32:47;4.72;;;2.25;;
41677;SDS011;27364;49.026;8.712;2023-04-03T09:35:31;5.32;;;2.40;;
41677;SDS011;27364;49.026;8.712;2023-04-03T09:37:59;4.88;;;2.25;;
41677;SDS011;27364;49.026;8.712;2023-04-03T09:40:35;4.60;;;2.00;;
41677;SDS011;27364;49.026;8.712;2023-04-03T09:45:54;5.35;;;2.28;;
41677;SDS011;27364;49.026;8.712;2023-04-03T09:48:22;4.97;;;2.20;;
41677;SDS011;27364;49.026;8.712;2023-04-03T09:53:26;7.72;;;2.38;;
41677;SDS011;27364;49.026;8.712;2023-04-03T09:55:55;3.50;;;1.90;;
41677;SDS011;27364;49.026;8.712;2023-04-03T09:58:31;3.67;;;2.17;;
41677;SDS011;27364;49.026;8.712;2023-04-03T10:01:06;4.70;;;2.10;;
41677;SDS011;27364;49.026;8.712;2023-04-03T10:03:45;4.72;;;2.72;;
41677;SDS011;27364;49.026;8.712;2023-04-03T10:06:21;5.03;;;2.13;;
41677;SDS011;27364;49.026;8.712;2023-04-03T10:09:03;5.43;;;2.20;;
41677;SDS011;27364;49.026;8.712;2023-04-03T10:11:30;4.85;;;2.15;;
41677;SDS011;27364;49.026;8.712;2023-04-03T10:13:57;6.32;;;2.03;;
41677;SDS011;27364;49.026;8.712;2023-04-03T10:16:26;6.32;;;2.15;;
41677;SDS011;27364;49.026;8.712;2023-04-03T10:24:38;5.32;;;2.20;;
41677;SDS011;27364;49.026;8.712;2023-04-03T10:30:38;5.43;;;1.92;;
41677;SDS011;27364;49.026;8.712;2023-04-03T10:38:14;3.20;;;1.80;;
41677;SDS011;27364;49.026;8.712;2023-04-03T10:43:45;3.08;;;1.90;;
41677;SDS011;27364;49.026;8.712;2023-04-03T10:46:27;5.82;;;2.08;;
41677;SDS011;27364;49.026;8.712;2023-04-03T10:51:51;4.60;;;2.30;;
41677;SDS011;27364;49.026;8.712;2023-04-03T10:54:41;3.78;;;2.13;;
41677;SDS011;27364;49.026;8.712;2023-04-03T10:57:29;6.55;;;2.47;;
41677;SDS011;27364;49.026;8.712;2023-04-03T10:59:56;4.32;;;2.30;;
41677;SDS011;27364;49.026;8.712;2023-04-03T11:02:30;5.40;;;2.25;;
41677;SDS011;27364;49.026;8.712;2023-04-03T11:05:03;4.55;;;2.22;;
41677;SDS011;27364;49.026;8.712;2023-04-03T11:07:37;4.43;;;2.45;;
41677;SDS011;27364;49.026;8.712;2023-04-03T11:10:10;4.30;;;2.00;;
41677;SDS011;27364;49.026;8.712;2023-04-03T11:12:44;4.40;;;2.30;;
41677;SDS011;27364;49.026;8.712;2023-04-03T11:15:15;3.50;;;2.20;;
41677;SDS011;27364;49.026;8.712;2023-04-03T11:17:48;4.28;;;2.00;;
41677;SDS011;27364;49.026;8.712;2023-04-03T11:20:30;5.63;;;2.00;;
41677;SDS011;27364;49.026;8.712;2023-04-03T11:23:45;5.50;;;2.10;;
41677;SDS011;27364;49.026;8.712;2023-04-03T11:25:54;5.65;;;3.40;;
41677;SDS011;27364;49.026;8.712;2023-04-03T11:28:25;6.07;;;3.53;;
41677;SDS011;27364;49.026;8.712;2023-04-03T11:36:10;5.15;;;2.67;;
41677;SDS011;27364;49.026;8.712;2023-04-03T11:38:43;4.72;;;2.42;;
41677;SDS011;27364;49.026;8.712;2023-04-03T11:41:12;6.55;;;2.50;;
41677;SDS011;27364;49.026;8.712;2023-04-03T12:05:48;9.80;;;2.67;;
41677;SDS011;27364;49.026;8.712;2023-04-03T12:16:20;5.90;;;2.53;;
41677;SDS011;27364;49.026;8.712;2023-04-03T12:21:18;3.72;;;2.20;;
41677;SDS011;27364;49.026;8.712;2023-04-03T12:35:05;4.28;;;2.03;;
41677;SDS011;27364;49.026;8.712;2023-04-03T12:46:26;3.88;;;2.10;;
41677;SDS011;27364;49.026;8.712;2023-04-03T12:48:59;3.97;;;2.20;;
41677;SDS011;27364;49.026;8.712;2023-04-03T12:51:32;4.40;;;2.10;;
41677;SDS011;27364;49.026;8.712;2023-04-03T12:54:03;5.40;;;2.15;;
41677;SDS011;27364;49.026;8.712;2023-04-03T12:56:44;3.60;;;1.98;;
41677;SDS011;27364;49.026;8.712;2023-04-03T12:59:18;5.28;;;2.22;;
41677;SDS011;27364;49.026;8.712;2023-04-03T13:02:12;4.13;;;2.10;;
41677;SDS011;27364;49.026;8.712;2023-04-03T13:04:51;4.18;;;2.05;;
41677;SDS011;27364;49.026;8.712;2023-04-03T13:10:23;4.35;;;2.00;;
41677;SDS011;27364;49.026;8.712;2023-04-03T13:12:47;4.22;;;2.38;;
41677;SDS011;27364;49.026;8.712;2023-04-03T13:15:15;4.95;;;2.38;;
41677;SDS011;27364;49.026;8.712;2023-04-03T13:17:43;7.13;;;2.40;;
41677;SDS011;27364;49.026;8.712;2023-04-03T13:20:14;7.20;;;2.53;;
41677;SDS011;27364;49.026;8.712;2023-04-03T13:22:49;5.80;;;1.92;;
41677;SDS011;27364;49.026;8.712;2023-04-03T13:25:22;7.03;;;2.45;;
41677;SDS011;27364;49.026;8.712;2023-04-03T13:27:49;5.05;;;2.55;;
41677;SDS011;27364;49.026;8.712;2023-04-03T13:30:32;6.20;;;2.50;;
41677;SDS011;27364;49.026;8.712;2023-04-03T13:33:02;3.95;;;2.10;;
41677;SDS011;27364;49.026;8.712;2023-04-03T13:35:35;4.10;;;2.00;;
41677;SDS011;27364;49.026;8.712;2023-04-03T13:38:27;6.35;;;2.20;;
41677;SDS011;27364;49.026;8.712;2023-04-03T13:40:54;6.57;;;2.15;;
41677;SDS011;27364;49.026;8.712;2023-04-03T13:43:26;3.35;;;2.00;;
41677;SDS011;27364;49.026;8.712;2023-04-03T13:48:38;4.95;;;2.30;;
41677;SDS011;27364;49.026;8.712;2023-04-03T13:51:05;4.57;;;2.20;;
41677;SDS011;27364;49.026;8.712;2023-04-03T13:56:13;6.15;;;2.10;;
41677;SDS011;27364;49.026;8.712;2023-04-03T13:58:58;5.63;;;2.42;;
41677;SDS011;27364;49.026;8.712;2023-04-03T14:04:19;4.65;;;2.05;;
41677;SDS011;27364;49.026;8.712;2023-04-03T14:06:50;5.22;;;2.40;;
41677;SDS011;27364;49.026;8.712;2023-04-03T14:09:17;4.28;;;2.10;;
41677;SDS011;27364;49.026;8.712;2023-04-03T14:11:44;3.90;;;2.13;;
41677;SDS011;27364;49.026;8.712;2023-04-03T14:14:12;3.77;;;1.93;;
41677;SDS011;27364;49.026;8.712;2023-04-03T14:16:56;3.88;;;2.00;;
41677;SDS011;27364;49.026;8.712;2023-04-03T14:19:34;3.92;;;1.90;;
41677;SDS011;27364;49.026;8.712;2023-04-03T14:22:03;3.80;;;1.90;;
41677;SDS011;27364;49.026;8.712;2023-04-03T14:24:37;3.55;;;1.83;;
41677;SDS011;27364;49.026;8.712;2023-04-03T14:27:05;4.65;;;2.35;;
41677;SDS011;27364;49.026;8.712;2023-04-03T14:29:51;4.25;;;1.98;;
41677;SDS011;27364;49.026;8.712;2023-04-03T14:32:18;5.55;;;1.90;;
41677;SDS011;27364;49.026;8.712;2023-04-03T14:34:46;5.28;;;2.30;;
41677;SDS011;27364;49.026;8.712;2023-04-03T14:37:14;3.20;;;1.92;;
41677;SDS011;27364;49.026;8.712;2023-04-03T14:39:45;4.63;;;2.08;;
41677;SDS011;27364;49.026;8.712;2023-04-03T14:42:12;6.38;;;2.47;;
41677;SDS011;27364;49.026;8.712;2023-04-03T14:44:40;4.28;;;2.35;;
41677;SDS011;27364;49.026;8.712;2023-04-03T14:47:09;4.72;;;2.80;;
41677;SDS011;27364;49.026;8.712;2023-04-03T14:49:39;4.82;;;2.50;;
41677;SDS011;27364;49.026;8.712;2023-04-03T14:52:05;3.70;;;2.28;;
41677;SDS011;27364;49.026;8.712;2023-04-03T14:54:31;3.92;;;2.33;;
41677;SDS011;27364;49.026;8.712;2023-04-03T14:56:58;5.88;;;2.40;;
41677;SDS011;27364;49.026;8.712;2023-04-03T15:01:51;4.30;;;2.35;;
41677;SDS011;27364;49.026;8.712;2023-04-03T15:04:18;5.38;;;2.45;;
41677;SDS011;27364;49.026;8.712;2023-04-03T15:06:45;4.43;;;2.70;;
41677;SDS011;27364;49.026;8.712;2023-04-03T15:09:15;5.68;;;2.70;;
41677;SDS011;27364;49.026;8.712;2023-04-03T15:11:49;4.95;;;2.05;;
41677;SDS011;27364;49.026;8.712;2023-04-03T15:14:16;3.85;;;2.00;;
41677;SDS011;27364;49.026;8.712;2023-04-03T15:16:42;4.97;;;2.42;;
41677;SDS011;27364;49.026;8.712;2023-04-03T15:19:08;4.53;;;2.20;;
41677;SDS011;27364;49.026;8.712;2023-04-03T15:21:33;4.18;;;2.38;;
41677;SDS011;27364;49.026;8.712;2023-04-03T15:23:59;5.38;;;2.20;;
41677;SDS011;27364;49.026;8.712;2023-04-03T15:26:25;3.17;;;1.85;;
41677;SDS011;27364;49.026;8.712;2023-04-03T15:28:50;4.55;;;2.20;;
41677;SDS011;27364;49.026;8.712;2023-04-03T15:31:16;3.13;;;1.95;;
41677;SDS011;27364;49.026;8.712;2023-04-03T15:33:42;4.43;;;2.00;;
41677;SDS011;27364;49.026;8.712;2023-04-03T15:36:07;3.65;;;2.20;;
41677;SDS011;27364;49.026;8.712;2023-04-03T15:38:33;4.35;;;2.38;;
41677;SDS011;27364;49.026;8.712;2023-04-03T15:40:59;3.83;;;2.22;;
41677;SDS011;27364;49.026;8.712;2023-04-03T15:43:25;5.78;;;2.10;;
41677;SDS011;27364;49.026;8.712;2023-04-03T15:45:52;3.70;;;2.13;;
41677;SDS011;27364;49.026;8.712;2023-04-03T15:48:21;4.07;;;2.30;;
41677;SDS011;27364;49.026;8.712;2023-04-03T15:50:46;3.67;;;2.28;;
41677;SDS011;27364;49.026;8.712;2023-04-03T15:53:12;4.78;;;2.30;;
41677;SDS011;27364;49.026;8.712;2023-04-03T15:55:38;4.60;;;2.40;;
41677;SDS011;27364;49.026;8.712;2023-04-03T15:58:04;4.05;;;1.88;;
41677;SDS011;27364;49.026;8.712;2023-04-03T16:00:30;4.63;;;2.35;;
41677;SDS011;27364;49.026;8.712;2023-04-03T16:03:00;4.25;;;2.40;;
41677;SDS011;27364;49.026;8.712;2023-04-03T16:05:30;5.18;;;2.00;;
41677;SDS011;27364;49.026;8.712;2023-04-03T16:07:56;3.83;;;2.17;;
41677;SDS011;27364;49.026;8.712;2023-04-03T16:12:49;3.40;;;2.20;;
41677;SDS011;27364;49.026;8.712;2023-04-03T16:15:15;5.28;;;2.30;;
41677;SDS011;27364;49.026;8.712;2023-04-03T16:17:41;5.70;;;3.38;;
41677;SDS011;27364;49.026;8.712;2023-04-03T16:20:07;6.22;;;2.40;;
41677;SDS011;27364;49.026;8.712;2023-04-03T16:22:35;4.68;;;2.50;;
41677;SDS011;27364;49.026;8.712;2023-04-03T16:25:01;4.05;;;2.10;;
41677;SDS011;27364;49.026;8.712;2023-04-03T16:27:27;4.78;;;2.42;;
41677;SDS011;27364;49.026;8.712;2023-04-03T16:29:55;4.82;;;2.63;;
41677;SDS011;27364;49.026;8.712;2023-04-03T16:32:22;6.30;;;2.83;;
41677;SDS011;27364;49.026;8.712;2023-04-03T16:34:49;8.40;;;4.00;;
41677;SDS011;27364;49.026;8.712;2023-04-03T16:37:15;10.63;;;5.00;;
41677;SDS011;27364;49.026;8.712;2023-04-03T16:39:41;5.50;;;3.10;;
41677;SDS011;27364;49.026;8.712;2023-04-03T16:42:07;6.03;;;3.58;;
41677;SDS011;27364;49.026;8.712;2023-04-03T16:44:34;5.85;;;3.10;;
41677;SDS011;27364;49.026;8.712;2023-04-03T16:47:00;6.72;;;2.63;;
41677;SDS011;27364;49.026;8.712;2023-04-03T16:49:25;4.82;;;2.50;;